Elsie, Oregon
Current Conditions -  °F | °C
As of 6:55 PM on Tuesday 25 Nov 2014 (Local Time) from KAST Reporting Station
Overcast Overcast  
Wind Chill: 57°   Ceiling: 500
Heat Index: 57°   Visibility: 10mi
Dew Point: 54°   Wind: 17mph
Humidity: 89%   Direction: 210°SSW
Pressure: 30.25"   Gusts: 26mph
Location:  45.8905°N, 123.667°W
Report Text: KAST 260255Z AUTO 21015G23KT 10SM OVC005 14/12 A3025 RMK AO2 SLP241 T01390122 58005
Loading
Personal Weather Stations






























Interactive Weather Map New forecast layout! Learn more

10-Day Weather Forecast

Advertisements
Track Severe Weather on mobile